Terminal Aerodrome Forecast
Issued by NWS

Home | Current Version | Previous Version | Text Only | Print | Product List | Glossary On
Versions: 1 2 3 4 5 6 7 8 9 10 11 12 13 14 15 16 17 18 19 20 21 22 23 24 25 26 27 28 29 30
000
FTUS45 KGJT 230542
TAFTEX
TAF
KTEX 230542Z 2306/2406 20006KT P6SM VCSH SCT003 OVC045
      TEMPO 2306/2308 25010G18KT 3SM -SN SCT005 BKN020 OVC030
     FM230800 27008G15KT 2SM -SN BR OVC020
      TEMPO 2308/2312 28015G25KT 1/2SM SN FZFG OVC008
     FM231400 27012G20KT 4SM -SN SCT015 BKN025
     FM232300 28008KT 5SM -SN SCT030 BKN050
     FM240300 26006KT P6SM VCSH SCT050 BKN080=

USA.gov is the U.S. government's official web portal to all federal, state and local government web resources and services.